createdAt,value
2017-09-30T00:02:21.925Z,15.29
2017-09-30T00:04:50.705Z,15.28
2017-09-30T00:07:19.376Z,15.28
2017-09-30T00:09:47.980Z,15.27
2017-09-30T00:12:16.598Z,15.26
2017-09-30T00:14:45.275Z,15.24
2017-09-30T00:17:13.908Z,15.23
2017-09-30T00:19:42.560Z,15.23
2017-09-30T00:22:11.189Z,15.22
2017-09-30T00:24:39.837Z,15.16
2017-09-30T00:27:23.033Z,15.13
2017-09-30T00:30:06.725Z,15.13
2017-09-30T00:32:49.110Z,15.12
2017-09-30T00:35:31.340Z,15.10
2017-09-30T00:38:03.075Z,15.08
2017-09-30T00:40:34.694Z,15.06
2017-09-30T00:43:06.038Z,15.02
2017-09-30T00:45:37.837Z,15.00
2017-09-30T00:48:09.221Z,14.99
2017-09-30T00:50:40.356Z,14.94
2017-09-30T00:53:11.826Z,14.90
2017-09-30T00:55:41.659Z,14.91
2017-09-30T00:58:11.601Z,14.90
2017-09-30T01:00:41.539Z,14.89
2017-09-30T01:03:10.260Z,14.84
2017-09-30T01:05:38.937Z,14.85
2017-09-30T01:08:07.562Z,14.81
2017-09-30T01:10:36.251Z,14.75
2017-09-30T01:13:04.891Z,14.76
2017-09-30T01:15:33.535Z,14.75
2017-09-30T01:18:02.206Z,14.76
2017-09-30T01:20:30.836Z,14.75
2017-09-30T01:22:59.549Z,14.74
2017-09-30T01:25:27.862Z,14.73
2017-09-30T01:27:56.578Z,14.72
2017-09-30T01:30:24.874Z,14.72
2017-09-30T01:32:53.557Z,14.67
2017-09-30T01:35:22.198Z,14.67
2017-09-30T01:37:50.907Z,14.70
2017-09-30T01:40:19.209Z,14.68
2017-09-30T01:42:47.518Z,14.66
2017-09-30T01:45:16.212Z,14.64
2017-09-30T01:47:44.827Z,14.63
2017-09-30T01:50:13.507Z,14.59
2017-09-30T01:52:41.824Z,14.60
2017-09-30T01:55:10.541Z,14.61
2017-09-30T01:57:39.224Z,14.60
2017-09-30T02:00:07.597Z,14.60
2017-09-30T02:02:35.901Z,14.58
2017-09-30T02:05:04.601Z,14.58
2017-09-30T02:07:33.213Z,14.53
2017-09-30T02:10:01.866Z,14.50
2017-09-30T02:12:30.609Z,14.51
2017-09-30T02:14:59.229Z,14.50
2017-09-30T02:17:27.893Z,14.51
2017-09-30T02:19:56.516Z,14.50
2017-09-30T02:22:24.893Z,14.50
2017-09-30T02:24:53.562Z,14.44
2017-09-30T02:27:22.177Z,14.47
2017-09-30T02:29:50.828Z,14.47
2017-09-30T02:32:19.457Z,14.47
2017-09-30T02:34:48.113Z,14.45
2017-09-30T02:37:16.731Z,14.44
2017-09-30T02:39:45.385Z,14.43
2017-09-30T02:42:14.001Z,14.39
2017-09-30T02:44:42.650Z,14.39
2017-09-30T02:47:11.314Z,14.38
2017-09-30T02:49:39.959Z,14.38
2017-09-30T02:52:08.720Z,14.39
2017-09-30T02:54:37.185Z,14.38
2017-09-30T02:57:05.879Z,14.37
2017-09-30T02:59:34.526Z,14.37
2017-09-30T03:02:03.190Z,14.36
2017-09-30T03:04:31.842Z,14.36
2017-09-30T03:07:00.486Z,14.36
2017-09-30T03:09:29.189Z,14.33
2017-09-30T03:11:57.867Z,14.34
2017-09-30T03:14:26.481Z,14.29
2017-09-30T03:16:55.168Z,14.28
2017-09-30T03:19:23.801Z,14.29
2017-09-30T03:21:52.455Z,14.27
2017-09-30T03:24:21.085Z,14.24
2017-09-30T03:26:49.738Z,14.21
2017-09-30T03:29:18.402Z,14.20
2017-09-30T03:31:47.023Z,14.17
2017-09-30T03:34:15.685Z,14.16
2017-09-30T03:36:44.363Z,14.16
2017-09-30T03:39:12.980Z,14.17
2017-09-30T03:41:41.641Z,14.15
2017-09-30T03:44:10.268Z,14.18
2017-09-30T03:46:38.992Z,14.18
2017-09-30T03:49:07.613Z,14.21
2017-09-30T03:51:36.235Z,14.20
2017-09-30T03:54:04.991Z,14.20
2017-09-30T03:56:33.605Z,14.22
2017-09-30T03:59:02.288Z,14.20
2017-09-30T04:01:30.899Z,14.19
2017-09-30T04:03:59.427Z,14.15
2017-09-30T04:06:28.046Z,14.17
2017-09-30T04:08:56.685Z,14.15
2017-09-30T04:11:29.860Z,14.17
2017-09-30T04:14:09.792Z,14.18
2017-09-30T04:16:41.960Z,14.19
2017-09-30T04:19:11.905Z,14.19
2017-09-30T04:21:40.652Z,14.20
2017-09-30T04:24:10.266Z,14.20
2017-09-30T04:26:38.925Z,14.17
2017-09-30T04:29:07.594Z,14.17
2017-09-30T04:31:36.214Z,14.18
2017-09-30T04:34:04.885Z,14.18
2017-09-30T04:36:33.492Z,14.17
2017-09-30T04:39:02.156Z,14.16
2017-09-30T04:41:30.781Z,14.15
2017-09-30T04:43:59.434Z,14.14
2017-09-30T04:46:27.741Z,14.13
2017-09-30T04:48:56.786Z,14.12
2017-09-30T04:51:25.407Z,14.09
2017-09-30T04:53:54.214Z,14.08
2017-09-30T04:56:22.852Z,14.07
2017-09-30T04:58:51.505Z,14.05
2017-09-30T05:01:20.113Z,14.05
2017-09-30T05:03:48.846Z,14.04
2017-09-30T05:06:17.516Z,14.03
2017-09-30T05:08:46.141Z,14.03
2017-09-30T05:11:14.801Z,14.03
2017-09-30T05:13:43.541Z,14.02
2017-09-30T05:16:12.157Z,14.02
2017-09-30T05:18:40.838Z,14.02
2017-09-30T05:21:09.466Z,14.01
2017-09-30T05:23:38.138Z,13.96
2017-09-30T05:26:06.781Z,13.98
2017-09-30T05:28:38.057Z,13.96
2017-09-30T05:31:06.702Z,13.93
2017-09-30T05:33:35.361Z,13.91
2017-09-30T05:36:04.027Z,13.94
2017-09-30T05:38:34.831Z,13.94
2017-09-30T05:41:06.433Z,13.95
2017-09-30T05:43:35.037Z,13.93
2017-09-30T05:46:04.657Z,13.92
2017-09-30T05:48:38.101Z,13.92
2017-09-30T05:51:06.727Z,13.92
2017-09-30T05:53:35.393Z,13.89
2017-09-30T05:56:04.039Z,13.86
2017-09-30T05:58:45.077Z,13.82
2017-09-30T06:01:13.689Z,13.85
2017-09-30T06:03:42.316Z,13.81
2017-09-30T06:06:10.989Z,13.84
2017-09-30T06:08:43.656Z,13.84
2017-09-30T06:11:27.676Z,13.87
2017-09-30T06:14:06.752Z,13.83
2017-09-30T06:16:47.523Z,13.85
2017-09-30T06:19:28.270Z,13.80
2017-09-30T06:22:10.666Z,13.82
2017-09-30T06:24:50.540Z,13.83
2017-09-30T06:27:27.976Z,13.80
2017-09-30T06:30:05.362Z,13.81
2017-09-30T06:32:49.244Z,13.82
2017-09-30T06:35:29.404Z,13.83
2017-09-30T06:38:05.654Z,13.82
2017-09-30T06:40:44.837Z,13.82
2017-09-30T06:43:28.223Z,13.80
2017-09-30T06:46:06.981Z,13.81
2017-09-30T06:48:37.414Z,13.83
2017-09-30T06:51:20.845Z,13.82
2017-09-30T06:53:58.704Z,13.82
2017-09-30T06:56:37.627Z,13.83
2017-09-30T06:59:26.122Z,13.83
2017-09-30T07:01:59.223Z,13.82
2017-09-30T07:04:27.851Z,13.84
2017-09-30T07:06:56.505Z,13.85
2017-09-30T07:09:28.423Z,13.89
2017-09-30T07:11:57.233Z,13.91
2017-09-30T07:14:25.865Z,13.92
2017-09-30T07:16:55.570Z,13.95
2017-09-30T07:19:24.286Z,13.99
2017-09-30T07:21:54.395Z,13.99
2017-09-30T07:24:23.513Z,14.02
2017-09-30T07:26:55.490Z,14.04
2017-09-30T07:29:24.118Z,14.07
2017-09-30T07:31:52.777Z,14.08
2017-09-30T07:34:21.391Z,14.12
2017-09-30T07:36:55.757Z,14.15
2017-09-30T07:39:31.250Z,14.17
2017-09-30T07:42:11.688Z,14.19
2017-09-30T07:44:44.380Z,14.21
2017-09-30T07:47:21.448Z,14.22
2017-09-30T07:49:54.688Z,14.24
2017-09-30T07:52:37.556Z,14.25
2017-09-30T07:55:18.725Z,14.27
2017-09-30T07:57:52.523Z,14.31
2017-09-30T08:00:26.616Z,14.31
2017-09-30T08:03:07.879Z,14.33
2017-09-30T08:05:48.455Z,14.34
2017-09-30T08:08:24.476Z,14.37
2017-09-30T08:13:45.101Z,14.41
2017-09-30T08:16:21.217Z,14.45
2017-09-30T08:18:55.784Z,14.47
2017-09-30T08:21:33.146Z,14.50
2017-09-30T08:24:10.176Z,14.52
2017-09-30T08:26:41.674Z,14.56
2017-09-30T08:29:20.617Z,14.58
2017-09-30T08:31:59.570Z,14.61
2017-09-30T08:34:38.467Z,14.63
2017-09-30T08:37:15.040Z,14.66
2017-09-30T08:39:49.443Z,14.69
2017-09-30T08:42:26.716Z,14.73
2017-09-30T08:45:05.613Z,14.77
2017-09-30T08:47:41.022Z,14.81
2017-09-30T08:50:18.191Z,14.85
2017-09-30T08:52:52.337Z,14.88
2017-09-30T08:55:21.949Z,14.92
2017-09-30T08:57:53.070Z,14.96
2017-09-30T09:00:23.325Z,15.00
2017-09-30T09:02:55.018Z,15.05
2017-09-30T09:05:25.231Z,15.08
2017-09-30T09:07:57.972Z,15.13
2017-09-30T09:10:30.549Z,15.15
2017-09-30T09:13:02.106Z,15.19
2017-09-30T09:15:33.695Z,15.22
2017-09-30T09:18:10.175Z,15.25
2017-09-30T09:20:44.434Z,15.29
2017-09-30T09:23:16.444Z,15.32
2017-09-30T09:25:48.153Z,15.36
2017-09-30T09:28:20.919Z,15.38
2017-09-30T09:33:28.984Z,15.47
2017-09-30T09:36:02.669Z,15.51
2017-09-30T09:38:38.755Z,15.54
2017-09-30T09:41:14.453Z,15.58
2017-09-30T09:43:46.855Z,15.62
2017-09-30T09:46:19.322Z,15.65
2017-09-30T09:48:49.204Z,15.68
2017-09-30T09:51:21.114Z,15.72
2017-09-30T09:53:53.992Z,15.78
2017-09-30T09:56:25.958Z,15.80
2017-09-30T09:58:57.234Z,15.84
2017-09-30T10:01:30.150Z,15.91
2017-09-30T10:04:02.535Z,15.95
2017-09-30T10:06:35.272Z,16.00
2017-09-30T10:09:09.201Z,16.03
2017-09-30T10:11:41.123Z,16.08
2017-09-30T10:14:18.743Z,16.14
2017-09-30T10:16:55.913Z,16.18
2017-09-30T10:19:28.314Z,16.24
2017-09-30T10:22:01.598Z,16.30
2017-09-30T10:24:33.669Z,16.33
2017-09-30T10:27:14.153Z,16.38
2017-09-30T10:29:52.190Z,16.43
2017-09-30T10:32:25.488Z,16.47
2017-09-30T10:34:57.761Z,16.50
2017-09-30T10:37:31.584Z,16.54
2017-09-30T10:40:05.804Z,16.58
2017-09-30T10:42:38.352Z,16.60
2017-09-30T10:45:11.324Z,16.65
2017-09-30T10:47:47.709Z,16.68
2017-09-30T10:50:20.722Z,16.71
2017-09-30T10:52:55.044Z,16.76
2017-09-30T10:55:28.594Z,16.78
2017-09-30T10:58:16.384Z,16.78
2017-09-30T11:00:48.556Z,16.85
2017-09-30T11:03:23.692Z,16.88
2017-09-30T11:05:56.194Z,16.91
2017-09-30T11:11:19.700Z,16.94
2017-09-30T11:13:54.055Z,16.95
2017-09-30T11:16:33.941Z,16.97
2017-09-30T11:19:06.945Z,16.98
2017-09-30T11:21:43.199Z,17.00
2017-09-30T11:24:17.900Z,17.02
2017-09-30T11:26:48.669Z,17.01
2017-09-30T11:29:25.837Z,17.01
2017-09-30T11:32:00.304Z,17.01
2017-09-30T11:34:33.213Z,17.02
2017-09-30T11:37:05.245Z,17.02
2017-09-30T11:39:38.148Z,17.03
2017-09-30T11:42:11.264Z,17.04
2017-09-30T11:44:44.325Z,17.03
2017-09-30T11:47:16.881Z,17.02
2017-09-30T11:49:51.544Z,17.02
2017-09-30T11:52:23.737Z,17.02
2017-09-30T11:54:56.561Z,17.02
2017-09-30T11:57:30.315Z,17.01
2017-09-30T12:00:01.859Z,17.01
2017-09-30T12:02:36.991Z,17.02
2017-09-30T12:05:09.229Z,17.03
2017-09-30T12:07:45.244Z,17.03
2017-09-30T12:10:17.482Z,17.02
2017-09-30T12:12:57.505Z,17.03
2017-09-30T12:15:33.344Z,17.02
2017-09-30T12:18:07.959Z,17.04
2017-09-30T12:20:42.248Z,17.05
2017-09-30T12:23:17.044Z,17.06
2017-09-30T12:25:46.899Z,17.06
2017-09-30T12:28:19.626Z,17.06
2017-09-30T12:30:51.972Z,17.07
2017-09-30T12:33:29.310Z,17.08
2017-09-30T12:35:59.118Z,17.09
2017-09-30T12:38:30.605Z,17.08
2017-09-30T12:41:07.082Z,17.07
2017-09-30T12:43:41.181Z,17.08
2017-09-30T12:46:17.291Z,17.08
2017-09-30T12:48:53.332Z,17.06
2017-09-30T12:51:30.750Z,17.07
2017-09-30T12:54:00.733Z,17.05
2017-09-30T12:56:33.598Z,17.05
2017-09-30T12:59:06.465Z,17.04
2017-09-30T13:01:43.821Z,17.03
2017-09-30T13:04:21.412Z,17.03
2017-09-30T13:06:53.119Z,17.03
2017-09-30T13:09:26.132Z,17.03
2017-09-30T13:11:56.599Z,17.02
2017-09-30T13:14:32.647Z,17.02
2017-09-30T13:17:07.025Z,17.00
2017-09-30T13:19:40.107Z,16.97
2017-09-30T13:22:14.623Z,16.98
2017-09-30T13:24:48.249Z,16.98
2017-09-30T13:27:20.436Z,16.98
2017-09-30T13:29:53.893Z,17.00
2017-09-30T13:32:35.153Z,16.98
2017-09-30T13:35:11.646Z,16.98
2017-09-30T13:37:44.809Z,16.98
2017-09-30T13:40:17.750Z,16.97
2017-09-30T13:42:48.450Z,16.97
2017-09-30T13:45:23.202Z,16.97
2017-09-30T13:47:54.426Z,16.98
2017-09-30T13:50:30.415Z,16.99
2017-09-30T13:53:05.496Z,17.00
2017-09-30T13:55:39.668Z,17.02
2017-09-30T13:58:12.990Z,17.03
2017-09-30T14:00:44.848Z,17.04
2017-09-30T14:03:17.914Z,17.05
2017-09-30T14:05:50.635Z,17.06
2017-09-30T14:08:23.574Z,17.05
2017-09-30T14:10:55.727Z,17.07
2017-09-30T14:13:27.893Z,17.06
2017-09-30T14:16:02.676Z,17.07
2017-09-30T14:18:40.118Z,17.07
2017-09-30T14:21:13.699Z,17.07
2017-09-30T14:23:46.721Z,17.06
2017-09-30T14:26:18.677Z,17.04
2017-09-30T14:28:50.353Z,17.05
2017-09-30T14:31:26.313Z,17.04
2017-09-30T14:34:02.258Z,17.02
2017-09-30T14:36:39.992Z,17.01
2017-09-30T14:39:14.153Z,17.00
2017-09-30T14:41:49.371Z,16.98
2017-09-30T14:44:20.393Z,16.96
2017-09-30T14:46:54.257Z,16.95
2017-09-30T14:49:28.273Z,16.95
2017-09-30T14:52:05.773Z,16.93
2017-09-30T14:54:40.293Z,16.92
2017-09-30T14:57:14.329Z,16.90
2017-09-30T14:59:47.788Z,16.90
2017-09-30T15:02:20.173Z,16.89
2017-09-30T15:04:55.996Z,16.88
2017-09-30T15:07:33.699Z,16.87
2017-09-30T15:10:08.703Z,16.85
2017-09-30T15:12:40.730Z,16.85
2017-09-30T15:15:13.539Z,16.83
2017-09-30T15:17:44.271Z,16.83
2017-09-30T15:20:19.745Z,16.82
2017-09-30T15:22:54.256Z,16.80
2017-09-30T15:25:27.327Z,16.81
2017-09-30T15:28:01.764Z,16.79
2017-09-30T15:30:39.004Z,16.79
2017-09-30T15:33:14.236Z,16.78
2017-09-30T15:35:47.161Z,16.76
2017-09-30T15:38:21.004Z,16.77
2017-09-30T15:40:53.551Z,16.75
2017-09-30T15:43:27.246Z,16.74
2017-09-30T15:46:00.497Z,16.73
2017-09-30T15:51:10.601Z,16.71
2017-09-30T15:53:42.112Z,16.71
2017-09-30T15:56:15.351Z,16.69
2017-09-30T15:58:47.282Z,16.68
2017-09-30T16:01:19.275Z,16.68
2017-09-30T16:03:52.584Z,16.67
2017-09-30T16:06:22.842Z,16.67
2017-09-30T16:08:56.359Z,16.66
2017-09-30T16:11:27.515Z,16.65
2017-09-30T16:14:01.128Z,16.64
2017-09-30T16:16:36.015Z,16.64
2017-09-30T16:19:08.584Z,16.62
2017-09-30T16:21:43.269Z,16.62
2017-09-30T16:24:13.386Z,16.61
2017-09-30T16:26:45.653Z,16.59
2017-09-30T16:29:19.860Z,16.58
2017-09-30T16:31:50.865Z,16.58
2017-09-30T16:34:23.025Z,16.57
2017-09-30T16:37:03.685Z,16.54
2017-09-30T16:39:37.473Z,16.53
2017-09-30T16:42:09.285Z,16.52
2017-09-30T16:44:41.596Z,16.51
2017-09-30T16:47:14.752Z,16.50
2017-09-30T16:49:50.365Z,16.49
2017-09-30T16:52:20.879Z,16.47
2017-09-30T16:54:54.184Z,16.46
2017-09-30T16:57:27.573Z,16.46
2017-09-30T16:59:59.703Z,16.45
2017-09-30T17:02:32.844Z,16.44
2017-09-30T17:05:04.453Z,16.42
2017-09-30T17:07:37.191Z,16.41
2017-09-30T17:10:10.667Z,16.39
2017-09-30T17:12:46.094Z,16.39
2017-09-30T17:15:19.542Z,16.38
2017-09-30T17:17:53.989Z,16.36
2017-09-30T17:20:25.236Z,16.35
2017-09-30T17:22:59.605Z,16.34
2017-09-30T17:25:35.437Z,16.32
2017-09-30T17:28:10.221Z,16.31
2017-09-30T17:30:46.088Z,16.31
2017-09-30T17:33:21.410Z,16.30
2017-09-30T17:35:51.401Z,16.30
2017-09-30T17:38:26.501Z,16.28
2017-09-30T17:41:04.445Z,16.27
2017-09-30T17:43:37.348Z,16.27
2017-09-30T17:46:09.330Z,16.25
2017-09-30T17:48:41.641Z,16.26
2017-09-30T17:51:13.284Z,16.25
2017-09-30T17:53:44.856Z,16.25
2017-09-30T17:56:19.475Z,16.25
2017-09-30T17:58:51.148Z,16.25
2017-09-30T18:01:24.962Z,16.25
2017-09-30T18:03:56.135Z,16.23
2017-09-30T18:06:29.814Z,16.22
2017-09-30T18:09:03.162Z,16.23
2017-09-30T18:11:35.749Z,16.22
2017-09-30T18:14:08.794Z,16.21
2017-09-30T18:16:42.593Z,16.20
2017-09-30T18:19:15.889Z,16.21
2017-09-30T18:21:50.415Z,16.19
2017-09-30T18:24:25.540Z,16.19
2017-09-30T18:27:06.106Z,16.18
2017-09-30T18:29:39.453Z,16.17
2017-09-30T18:32:11.673Z,16.16
2017-09-30T18:34:47.582Z,16.16
2017-09-30T18:37:25.192Z,16.15
2017-09-30T18:39:58.164Z,16.12
2017-09-30T18:42:30.713Z,16.13
2017-09-30T18:45:01.057Z,16.10
2017-09-30T18:47:32.815Z,16.10
2017-09-30T18:50:06.252Z,16.09
2017-09-30T18:52:44.984Z,16.09
2017-09-30T18:55:25.975Z,16.08
2017-09-30T18:57:59.409Z,16.05
2017-09-30T19:00:34.509Z,16.03
2017-09-30T19:03:11.228Z,16.04
2017-09-30T19:05:44.399Z,16.01
2017-09-30T19:08:20.790Z,16.01
2017-09-30T19:10:53.707Z,16.01
2017-09-30T19:13:24.220Z,15.98
2017-09-30T19:15:55.762Z,15.98
2017-09-30T19:18:28.412Z,15.96
2017-09-30T19:21:02.138Z,15.96
2017-09-30T19:23:33.967Z,15.93
2017-09-30T19:26:10.553Z,15.91
2017-09-30T19:28:45.126Z,15.91
2017-09-30T19:31:20.406Z,15.90
2017-09-30T19:33:56.149Z,15.87
2017-09-30T19:36:29.385Z,15.88
2017-09-30T19:39:02.416Z,15.89
2017-09-30T19:41:36.063Z,15.87
2017-09-30T19:44:09.194Z,15.84
2017-09-30T19:46:42.185Z,15.82
2017-09-30T19:49:17.994Z,15.81
2017-09-30T19:51:50.859Z,15.81
2017-09-30T19:54:34.524Z,15.79
2017-09-30T19:57:10.715Z,15.79
2017-09-30T19:59:42.052Z,15.77
2017-09-30T20:02:16.197Z,15.76
2017-09-30T20:04:48.447Z,15.73
2017-09-30T20:07:22.068Z,15.72
2017-09-30T20:09:54.761Z,15.71
2017-09-30T20:12:28.961Z,15.68
2017-09-30T20:15:01.329Z,15.66
2017-09-30T20:17:36.833Z,15.66
2017-09-30T20:20:10.102Z,15.62
2017-09-30T20:22:42.032Z,15.60
2017-09-30T20:25:13.770Z,15.60
2017-09-30T20:27:45.833Z,15.58
2017-09-30T20:30:20.063Z,15.57
2017-09-30T20:32:49.660Z,15.54
2017-09-30T20:35:21.993Z,15.50
2017-09-30T20:37:57.270Z,15.51
2017-09-30T20:40:32.600Z,15.50
2017-09-30T20:43:04.745Z,15.49
2017-09-30T20:45:39.085Z,15.48
2017-09-30T20:48:12.878Z,15.49
2017-09-30T20:50:45.022Z,15.48
2017-09-30T20:53:21.598Z,15.49
2017-09-30T20:55:55.351Z,15.48
2017-09-30T20:58:28.920Z,15.48
2017-09-30T21:01:01.914Z,15.47
2017-09-30T21:03:35.480Z,15.46
2017-09-30T21:06:04.277Z,15.47
2017-09-30T21:08:40.116Z,15.45
2017-09-30T21:11:16.213Z,15.46
2017-09-30T21:13:48.283Z,15.46
2017-09-30T21:16:21.580Z,15.46
2017-09-30T21:18:54.029Z,15.46
2017-09-30T21:21:28.471Z,15.44
2017-09-30T21:24:00.402Z,15.43
2017-09-30T21:26:35.229Z,15.39
2017-09-30T21:29:11.382Z,15.37
2017-09-30T21:31:44.967Z,15.35
2017-09-30T21:34:21.122Z,15.31
2017-09-30T21:36:52.256Z,15.27
2017-09-30T21:39:26.057Z,15.25
2017-09-30T21:42:00.730Z,15.23
2017-09-30T21:44:32.759Z,15.19
2017-09-30T21:47:06.876Z,15.19
2017-09-30T21:49:39.451Z,15.15
2017-09-30T21:52:14.198Z,15.14
2017-09-30T21:54:47.370Z,15.10
2017-09-30T21:57:19.437Z,15.07
2017-09-30T21:59:51.229Z,15.03
2017-09-30T22:02:25.011Z,15.02
2017-09-30T22:04:58.627Z,14.98
2017-09-30T22:07:30.618Z,14.95
2017-09-30T22:10:03.602Z,14.93
2017-09-30T22:12:35.309Z,14.89
2017-09-30T22:15:09.103Z,14.88
2017-09-30T22:17:43.757Z,14.86
2017-09-30T22:20:18.573Z,14.88
2017-09-30T22:22:55.043Z,14.85
2017-09-30T22:25:28.706Z,14.84
2017-09-30T22:28:00.861Z,14.83
2017-09-30T22:30:33.990Z,14.83
2017-09-30T22:33:07.384Z,14.81
2017-09-30T22:35:53.456Z,14.73
2017-09-30T22:38:36.260Z,14.71
2017-09-30T22:41:20.236Z,14.73
2017-09-30T22:44:03.033Z,14.67
2017-09-30T22:46:53.401Z,14.68
2017-09-30T22:49:30.726Z,14.66
2017-09-30T22:52:14.786Z,14.63
2017-09-30T22:54:59.612Z,14.62
2017-09-30T22:57:59.671Z,14.61
2017-09-30T23:00:32.061Z,14.60
2017-09-30T23:03:18.158Z,14.60
2017-09-30T23:11:08.260Z,14.54
2017-09-30T23:13:41.921Z,14.52
2017-09-30T23:16:19.903Z,14.50
2017-09-30T23:18:55.205Z,14.49
2017-09-30T23:21:28.934Z,14.46
2017-09-30T23:24:00.014Z,14.46
2017-09-30T23:26:32.952Z,14.45
2017-09-30T23:29:04.982Z,14.44
2017-09-30T23:31:39.739Z,14.41
2017-09-30T23:34:19.003Z,14.37
2017-09-30T23:36:57.549Z,14.39
2017-09-30T23:39:34.293Z,14.36
2017-09-30T23:42:08.004Z,14.29
2017-09-30T23:44:55.547Z,14.31
2017-09-30T23:47:29.545Z,14.32
2017-09-30T23:50:08.350Z,14.31
2017-09-30T23:52:43.918Z,14.30
2017-09-30T23:55:20.094Z,14.28
2017-09-30T23:57:51.339Z,14.27
